sensor_id;sensor_type;location;lat;lon;timestamp;P1;durP1;ratioP1;P2;durP2;ratioP2
27863;SDS011;15980;51.092;13.916;2023-06-19T00:03:03;17.58;;;12.20;;
27863;SDS011;15980;51.092;13.916;2023-06-19T00:13:04;17.88;;;12.38;;
27863;SDS011;15980;51.092;13.916;2023-06-19T00:23:04;15.77;;;12.10;;
27863;SDS011;15980;51.092;13.916;2023-06-19T00:33:05;18.43;;;13.20;;
27863;SDS011;15980;51.092;13.916;2023-06-19T00:43:05;16.52;;;11.82;;
27863;SDS011;15980;51.092;13.916;2023-06-19T00:53:06;20.95;;;13.65;;
27863;SDS011;15980;51.092;13.916;2023-06-19T01:03:06;18.10;;;12.90;;
27863;SDS011;15980;51.092;13.916;2023-06-19T01:13:11;21.13;;;12.60;;
27863;SDS011;15980;51.092;13.916;2023-06-19T01:23:36;19.17;;;12.57;;
27863;SDS011;15980;51.092;13.916;2023-06-19T01:33:36;19.45;;;11.88;;
27863;SDS011;15980;51.092;13.916;2023-06-19T01:53:40;17.25;;;12.00;;
27863;SDS011;15980;51.092;13.916;2023-06-19T02:03:40;15.02;;;10.57;;
27863;SDS011;15980;51.092;13.916;2023-06-19T02:13:41;18.83;;;11.98;;
27863;SDS011;15980;51.092;13.916;2023-06-19T02:23:41;17.42;;;11.63;;
27863;SDS011;15980;51.092;13.916;2023-06-19T02:33:42;16.38;;;11.00;;
27863;SDS011;15980;51.092;13.916;2023-06-19T02:43:42;16.15;;;10.88;;
27863;SDS011;15980;51.092;13.916;2023-06-19T02:53:43;16.02;;;10.52;;
27863;SDS011;15980;51.092;13.916;2023-06-19T03:03:43;18.83;;;11.02;;
27863;SDS011;15980;51.092;13.916;2023-06-19T03:13:44;19.40;;;11.73;;
27863;SDS011;15980;51.092;13.916;2023-06-19T03:33:46;14.93;;;10.57;;
27863;SDS011;15980;51.092;13.916;2023-06-19T03:43:47;15.00;;;10.73;;
27863;SDS011;15980;51.092;13.916;2023-06-19T03:53:47;17.25;;;11.32;;
27863;SDS011;15980;51.092;13.916;2023-06-19T04:03:47;18.50;;;11.30;;
27863;SDS011;15980;51.092;13.916;2023-06-19T04:13:48;14.05;;;9.90;;
27863;SDS011;15980;51.092;13.916;2023-06-19T04:23:48;16.90;;;11.05;;
27863;SDS011;15980;51.092;13.916;2023-06-19T04:33:48;18.42;;;10.65;;
27863;SDS011;15980;51.092;13.916;2023-06-19T04:43:49;19.75;;;10.52;;
27863;SDS011;15980;51.092;13.916;2023-06-19T04:53:49;14.07;;;9.68;;
27863;SDS011;15980;51.092;13.916;2023-06-19T05:03:49;21.20;;;9.85;;
27863;SDS011;15980;51.092;13.916;2023-06-19T05:13:49;16.67;;;10.25;;
27863;SDS011;15980;51.092;13.916;2023-06-19T05:23:50;13.25;;;9.63;;
27863;SDS011;15980;51.092;13.916;2023-06-19T05:33:50;12.55;;;9.00;;
27863;SDS011;15980;51.092;13.916;2023-06-19T05:43:50;11.38;;;8.15;;
27863;SDS011;15980;51.092;13.916;2023-06-19T05:53:51;13.30;;;7.97;;
27863;SDS011;15980;51.092;13.916;2023-06-19T06:03:51;17.80;;;9.05;;
27863;SDS011;15980;51.092;13.916;2023-06-19T06:13:51;12.85;;;8.30;;
27863;SDS011;15980;51.092;13.916;2023-06-19T06:23:52;9.40;;;7.38;;
27863;SDS011;15980;51.092;13.916;2023-06-19T06:33:52;12.40;;;8.13;;
27863;SDS011;15980;51.092;13.916;2023-06-19T06:43:52;12.38;;;8.02;;
27863;SDS011;15980;51.092;13.916;2023-06-19T06:53:53;18.05;;;8.40;;
27863;SDS011;15980;51.092;13.916;2023-06-19T07:03:53;10.38;;;7.30;;
27863;SDS011;15980;51.092;13.916;2023-06-19T07:13:53;8.68;;;7.15;;
27863;SDS011;15980;51.092;13.916;2023-06-19T07:23:53;10.52;;;8.02;;
27863;SDS011;15980;51.092;13.916;2023-06-19T07:33:54;12.93;;;7.85;;
27863;SDS011;15980;51.092;13.916;2023-06-19T07:43:54;9.55;;;7.18;;
27863;SDS011;15980;51.092;13.916;2023-06-19T07:53:55;9.85;;;7.10;;
27863;SDS011;15980;51.092;13.916;2023-06-19T08:03:55;10.75;;;7.28;;
27863;SDS011;15980;51.092;13.916;2023-06-19T08:13:55;10.15;;;7.35;;
27863;SDS011;15980;51.092;13.916;2023-06-19T08:23:56;13.27;;;7.40;;
27863;SDS011;15980;51.092;13.916;2023-06-19T08:33:56;17.27;;;7.78;;
27863;SDS011;15980;51.092;13.916;2023-06-19T08:43:56;8.93;;;7.55;;
27863;SDS011;15980;51.092;13.916;2023-06-19T08:54:01;11.32;;;7.20;;
27863;SDS011;15980;51.092;13.916;2023-06-19T09:04:12;9.70;;;6.70;;
27863;SDS011;15980;51.092;13.916;2023-06-19T09:14:13;8.97;;;6.87;;
27863;SDS011;15980;51.092;13.916;2023-06-19T09:24:13;9.07;;;7.22;;
27863;SDS011;15980;51.092;13.916;2023-06-19T09:34:14;8.18;;;6.78;;
27863;SDS011;15980;51.092;13.916;2023-06-19T09:44:14;10.70;;;7.72;;
27863;SDS011;15980;51.092;13.916;2023-06-19T09:54:15;11.15;;;7.55;;
27863;SDS011;15980;51.092;13.916;2023-06-19T10:04:17;14.48;;;9.38;;
27863;SDS011;15980;51.092;13.916;2023-06-19T10:14:18;13.98;;;8.52;;
27863;SDS011;15980;51.092;13.916;2023-06-19T10:24:19;10.35;;;7.60;;
27863;SDS011;15980;51.092;13.916;2023-06-19T10:44:22;10.65;;;7.72;;
27863;SDS011;15980;51.092;13.916;2023-06-19T10:54:23;9.50;;;7.38;;
27863;SDS011;15980;51.092;13.916;2023-06-19T11:04:23;9.73;;;7.63;;
27863;SDS011;15980;51.092;13.916;2023-06-19T11:14:28;8.93;;;7.30;;
27863;SDS011;15980;51.092;13.916;2023-06-19T11:24:29;9.23;;;6.90;;
27863;SDS011;15980;51.092;13.916;2023-06-19T11:34:33;9.77;;;6.47;;
27863;SDS011;15980;51.092;13.916;2023-06-19T11:44:36;8.68;;;5.93;;
27863;SDS011;15980;51.092;13.916;2023-06-19T11:54:52;7.82;;;6.30;;
27863;SDS011;15980;51.092;13.916;2023-06-19T12:04:52;8.07;;;6.13;;
27863;SDS011;15980;51.092;13.916;2023-06-19T12:14:53;11.98;;;7.07;;
27863;SDS011;15980;51.092;13.916;2023-06-19T12:24:53;8.15;;;6.38;;
27863;SDS011;15980;51.092;13.916;2023-06-19T12:34:53;9.75;;;6.75;;
27863;SDS011;15980;51.092;13.916;2023-06-19T12:54:54;8.65;;;5.80;;
27863;SDS011;15980;51.092;13.916;2023-06-19T13:04:54;9.20;;;6.82;;
27863;SDS011;15980;51.092;13.916;2023-06-19T13:14:54;10.80;;;6.70;;
27863;SDS011;15980;51.092;13.916;2023-06-19T13:24:55;14.27;;;7.18;;
27863;SDS011;15980;51.092;13.916;2023-06-19T13:34:55;19.17;;;8.02;;
27863;SDS011;15980;51.092;13.916;2023-06-19T13:44:55;11.52;;;7.78;;
27863;SDS011;15980;51.092;13.916;2023-06-19T13:54:56;11.23;;;7.82;;
27863;SDS011;15980;51.092;13.916;2023-06-19T14:04:56;10.45;;;8.00;;
27863;SDS011;15980;51.092;13.916;2023-06-19T14:14:57;12.98;;;8.68;;
27863;SDS011;15980;51.092;13.916;2023-06-19T14:24:57;18.77;;;10.55;;
27863;SDS011;15980;51.092;13.916;2023-06-19T14:34:57;16.45;;;9.27;;
27863;SDS011;15980;51.092;13.916;2023-06-19T14:44:58;14.77;;;9.27;;
27863;SDS011;15980;51.092;13.916;2023-06-19T14:54:58;39.63;;;10.93;;
27863;SDS011;15980;51.092;13.916;2023-06-19T15:04:58;63.07;;;12.37;;
27863;SDS011;15980;51.092;13.916;2023-06-19T15:14:58;24.20;;;10.90;;
27863;SDS011;15980;51.092;13.916;2023-06-19T15:24:59;15.10;;;10.00;;
27863;SDS011;15980;51.092;13.916;2023-06-19T15:34:59;12.07;;;9.73;;
27863;SDS011;15980;51.092;13.916;2023-06-19T15:44:59;13.07;;;9.82;;
27863;SDS011;15980;51.092;13.916;2023-06-19T15:55:00;38.85;;;11.23;;
27863;SDS011;15980;51.092;13.916;2023-06-19T16:05:00;16.35;;;10.25;;
27863;SDS011;15980;51.092;13.916;2023-06-19T16:15:00;16.65;;;10.63;;
27863;SDS011;15980;51.092;13.916;2023-06-19T16:25:00;18.10;;;11.63;;
27863;SDS011;15980;51.092;13.916;2023-06-19T16:35:01;16.07;;;10.27;;
27863;SDS011;15980;51.092;13.916;2023-06-19T16:45:01;12.93;;;10.07;;
27863;SDS011;15980;51.092;13.916;2023-06-19T16:55:02;15.48;;;10.77;;
27863;SDS011;15980;51.092;13.916;2023-06-19T17:05:02;15.57;;;11.05;;
27863;SDS011;15980;51.092;13.916;2023-06-19T17:15:03;15.55;;;10.75;;
27863;SDS011;15980;51.092;13.916;2023-06-19T17:25:04;17.60;;;10.77;;
27863;SDS011;15980;51.092;13.916;2023-06-19T17:35:05;13.57;;;10.80;;
27863;SDS011;15980;51.092;13.916;2023-06-19T17:45:06;17.33;;;12.57;;
27863;SDS011;15980;51.092;13.916;2023-06-19T17:55:10;16.77;;;12.52;;
27863;SDS011;15980;51.092;13.916;2023-06-19T18:05:10;15.32;;;11.98;;
27863;SDS011;15980;51.092;13.916;2023-06-19T18:15:11;19.52;;;12.82;;
27863;SDS011;15980;51.092;13.916;2023-06-19T18:25:11;19.65;;;13.77;;
27863;SDS011;15980;51.092;13.916;2023-06-19T18:35:11;21.38;;;15.48;;
27863;SDS011;15980;51.092;13.916;2023-06-19T18:45:11;24.80;;;17.13;;
27863;SDS011;15980;51.092;13.916;2023-06-19T18:55:12;21.85;;;14.63;;
27863;SDS011;15980;51.092;13.916;2023-06-19T19:05:12;19.23;;;14.32;;
27863;SDS011;15980;51.092;13.916;2023-06-19T19:15:12;21.85;;;14.02;;
27863;SDS011;15980;51.092;13.916;2023-06-19T19:25:13;18.80;;;14.43;;
27863;SDS011;15980;51.092;13.916;2023-06-19T19:35:13;19.30;;;13.30;;
27863;SDS011;15980;51.092;13.916;2023-06-19T19:45:13;18.08;;;12.43;;
27863;SDS011;15980;51.092;13.916;2023-06-19T19:55:14;19.40;;;12.95;;
27863;SDS011;15980;51.092;13.916;2023-06-19T20:05:14;19.90;;;12.77;;
27863;SDS011;15980;51.092;13.916;2023-06-19T20:15:15;18.33;;;13.10;;
27863;SDS011;15980;51.092;13.916;2023-06-19T20:25:15;21.23;;;13.35;;
27863;SDS011;15980;51.092;13.916;2023-06-19T20:35:15;18.65;;;14.52;;
27863;SDS011;15980;51.092;13.916;2023-06-19T20:45:15;21.20;;;14.38;;
27863;SDS011;15980;51.092;13.916;2023-06-19T20:55:16;16.30;;;12.88;;
27863;SDS011;15980;51.092;13.916;2023-06-19T21:05:16;16.65;;;13.52;;
27863;SDS011;15980;51.092;13.916;2023-06-19T21:15:16;18.58;;;13.57;;
27863;SDS011;15980;51.092;13.916;2023-06-19T21:25:17;18.17;;;13.60;;
27863;SDS011;15980;51.092;13.916;2023-06-19T21:35:17;18.50;;;13.65;;
27863;SDS011;15980;51.092;13.916;2023-06-19T21:45:18;17.23;;;13.57;;
27863;SDS011;15980;51.092;13.916;2023-06-19T21:55:18;20.25;;;12.70;;
27863;SDS011;15980;51.092;13.916;2023-06-19T22:05:18;19.48;;;13.20;;
27863;SDS011;15980;51.092;13.916;2023-06-19T22:15:19;20.85;;;14.95;;
27863;SDS011;15980;51.092;13.916;2023-06-19T22:25:19;18.65;;;14.02;;
27863;SDS011;15980;51.092;13.916;2023-06-19T22:35:20;22.35;;;15.57;;
27863;SDS011;15980;51.092;13.916;2023-06-19T22:45:20;21.55;;;13.75;;
27863;SDS011;15980;51.092;13.916;2023-06-19T22:55:21;20.50;;;13.63;;
27863;SDS011;15980;51.092;13.916;2023-06-19T23:05:21;19.60;;;14.13;;
27863;SDS011;15980;51.092;13.916;2023-06-19T23:15:21;20.10;;;14.23;;
27863;SDS011;15980;51.092;13.916;2023-06-19T23:25:22;17.70;;;14.30;;
27863;SDS011;15980;51.092;13.916;2023-06-19T23:35:22;18.92;;;14.50;;
27863;SDS011;15980;51.092;13.916;2023-06-19T23:45:22;23.08;;;15.13;;
27863;SDS011;15980;51.092;13.916;2023-06-19T23:55:22;19.00;;;14.40;;
